createdAt,value
2023-01-24T00:01:44.814Z,19.30
2023-01-24T00:04:12.705Z,17.67
2023-01-24T00:06:40.481Z,18.40
2023-01-24T00:09:08.313Z,18.60
2023-01-24T00:11:36.202Z,18.33
2023-01-24T00:14:03.979Z,18.03
2023-01-24T00:16:31.801Z,18.07
2023-01-24T00:19:01.215Z,17.97
2023-01-24T00:21:29.037Z,18.13
2023-01-24T00:23:56.952Z,18.30
2023-01-24T00:26:26.187Z,17.70
2023-01-24T00:28:54.470Z,17.83
2023-01-24T00:31:25.066Z,18.27
2023-01-24T00:33:52.941Z,16.87
2023-01-24T00:36:22.143Z,18.23
2023-01-24T00:38:50.003Z,17.83
2023-01-24T00:41:17.808Z,17.63
2023-01-24T00:43:45.730Z,17.37
2023-01-24T00:46:13.809Z,18.13
2023-01-24T00:48:41.642Z,18.33
2023-01-24T00:51:09.649Z,17.63
2023-01-24T00:53:38.829Z,17.37
2023-01-24T00:56:07.537Z,18.23
2023-01-24T00:58:35.854Z,17.43
2023-01-24T01:01:04.370Z,17.23
2023-01-24T01:03:32.399Z,16.60
2023-01-24T01:06:01.725Z,16.83
2023-01-24T01:08:29.645Z,17.37
2023-01-24T01:10:58.826Z,16.83
2023-01-24T01:13:28.096Z,17.23
2023-01-24T01:16:02.396Z,17.40
2023-01-24T01:18:30.401Z,17.73
2023-01-24T01:20:58.235Z,16.90
2023-01-24T01:23:26.059Z,18.67
2023-01-24T01:25:53.989Z,18.20
2023-01-24T01:28:23.193Z,16.73
2023-01-24T01:30:54.262Z,17.20
2023-01-24T01:33:22.733Z,17.20
2023-01-24T01:35:51.430Z,17.80
2023-01-24T01:38:19.423Z,16.80
2023-01-24T01:40:47.613Z,17.07
2023-01-24T01:43:17.600Z,17.63
2023-01-24T01:45:48.278Z,15.93
2023-01-24T01:48:23.136Z,16.37
2023-01-24T01:50:57.592Z,16.17
2023-01-24T01:53:29.895Z,16.30
2023-01-24T01:56:02.146Z,16.90
2023-01-24T01:58:30.039Z,16.67
2023-01-24T02:00:59.486Z,15.97
2023-01-24T02:03:40.462Z,15.60
2023-01-24T02:06:16.749Z,15.43
2023-01-24T02:08:45.730Z,16.23
2023-01-24T02:11:33.005Z,16.23
2023-01-24T02:14:20.158Z,16.40
2023-01-24T02:16:49.340Z,16.23
2023-01-24T02:19:29.403Z,16.07
2023-01-24T02:22:04.677Z,16.37
2023-01-24T02:24:39.022Z,16.00
2023-01-24T02:27:08.374Z,16.03
2023-01-24T02:29:36.711Z,16.73
2023-01-24T02:32:09.087Z,16.73
2023-01-24T02:34:36.872Z,17.00
2023-01-24T02:37:08.748Z,16.57
2023-01-24T02:39:45.630Z,16.47
2023-01-24T02:42:21.859Z,16.57
2023-01-24T02:44:59.993Z,16.80
2023-01-24T02:47:33.516Z,16.93
2023-01-24T02:50:01.579Z,16.30
2023-01-24T02:52:47.313Z,17.13
2023-01-24T02:55:16.044Z,17.83
2023-01-24T02:58:03.331Z,17.73
2023-01-24T03:00:31.266Z,17.07
2023-01-24T03:03:02.037Z,17.10
2023-01-24T03:05:40.362Z,16.47
2023-01-24T03:08:16.579Z,18.07
2023-01-24T03:10:47.637Z,17.97
2023-01-24T03:13:36.606Z,18.53
2023-01-24T03:16:23.342Z,17.70
2023-01-24T03:19:08.971Z,16.67
2023-01-24T03:21:54.317Z,17.70
2023-01-24T03:24:39.597Z,17.40
2023-01-24T03:27:25.575Z,18.70
2023-01-24T03:30:12.456Z,18.30
2023-01-24T03:32:58.964Z,18.43
2023-01-24T03:35:26.835Z,17.43
2023-01-24T03:38:12.543Z,17.40
2023-01-24T03:40:40.599Z,17.47
2023-01-24T03:43:08.989Z,17.73
2023-01-24T03:45:42.056Z,17.13
2023-01-24T03:48:27.347Z,17.80
2023-01-24T03:51:13.199Z,18.90
2023-01-24T03:53:41.420Z,17.47
2023-01-24T03:56:09.219Z,17.37
2023-01-24T03:58:44.191Z,16.73
2023-01-24T04:01:15.692Z,17.23
2023-01-24T04:04:08.199Z,17.37
2023-01-24T04:06:36.525Z,16.63
2023-01-24T04:09:07.381Z,17.33
2023-01-24T04:11:37.952Z,16.67
2023-01-24T04:14:12.262Z,17.03
2023-01-24T04:16:53.110Z,16.70
2023-01-24T04:19:26.683Z,16.90
2023-01-24T04:21:54.653Z,16.67
2023-01-24T04:24:22.771Z,16.67
2023-01-24T04:26:50.759Z,17.43
2023-01-24T04:29:23.355Z,16.87
2023-01-24T04:31:54.106Z,16.83
2023-01-24T04:34:41.468Z,16.47
2023-01-24T04:37:17.823Z,16.43
2023-01-24T04:39:46.671Z,16.33
2023-01-24T04:42:17.733Z,16.80
2023-01-24T04:44:46.766Z,15.93
2023-01-24T04:47:17.206Z,17.47
2023-01-24T04:49:45.668Z,17.40
2023-01-24T04:52:45.868Z,17.17
2023-01-24T04:55:16.873Z,17.37
2023-01-24T04:57:45.032Z,17.17
2023-01-24T05:00:13.473Z,17.30
2023-01-24T05:02:43.580Z,16.37
2023-01-24T05:05:11.680Z,17.90
2023-01-24T05:07:39.630Z,16.30
2023-01-24T05:10:13.159Z,16.50
2023-01-24T05:12:40.987Z,15.83
2023-01-24T05:15:15.866Z,17.43
2023-01-24T05:17:46.594Z,16.50
2023-01-24T05:20:19.230Z,15.10
2023-01-24T05:22:50.377Z,16.17
2023-01-24T05:25:19.458Z,15.30
2023-01-24T05:27:47.450Z,16.17
2023-01-24T11:19:59.009Z,10.57
2023-01-24T11:22:35.752Z,10.93
2023-01-24T11:25:06.469Z,12.03
2023-01-24T11:27:46.928Z,11.40
2023-01-24T11:30:18.369Z,11.20
2023-01-24T11:32:57.492Z,11.00
2023-01-24T11:35:29.970Z,11.90
2023-01-24T11:38:15.563Z,11.10
2023-01-24T11:40:46.505Z,12.53
2023-01-24T11:43:28.357Z,11.80
2023-01-24T11:46:15.210Z,12.23
2023-01-24T11:48:53.882Z,12.13
2023-01-24T11:51:32.077Z,13.50
2023-01-24T11:54:16.553Z,12.30
2023-01-24T11:56:52.123Z,11.13
2023-01-24T11:59:49.160Z,12.53
2023-01-24T12:02:30.812Z,11.93
2023-01-24T12:05:12.384Z,11.70
2023-01-24T12:07:54.612Z,11.80
2023-01-24T12:10:30.756Z,10.90
2023-01-24T12:13:07.460Z,11.20
2023-01-24T12:15:44.591Z,11.47
2023-01-24T12:18:33.732Z,11.23
2023-01-24T12:21:06.739Z,11.60
2023-01-24T12:23:46.610Z,11.40
2023-01-24T12:26:21.021Z,11.13
2023-01-24T12:28:57.280Z,11.87
2023-01-24T12:31:32.531Z,10.70
2023-01-24T12:34:09.104Z,11.17
2023-01-24T12:36:42.207Z,11.10
2023-01-24T12:39:17.905Z,11.73
2023-01-24T12:41:53.166Z,11.43
2023-01-24T12:44:32.929Z,10.27
2023-01-24T12:47:18.275Z,9.93
2023-01-24T12:49:57.100Z,10.30
2023-01-24T12:52:32.779Z,10.53
2023-01-24T12:55:06.254Z,10.50
2023-01-24T12:57:41.557Z,10.17
2023-01-24T13:00:17.748Z,10.37
2023-01-24T13:03:19.462Z,11.00
2023-01-24T13:05:52.838Z,10.13
2023-01-24T13:08:30.845Z,9.53
2023-01-24T13:11:11.779Z,10.63
2023-01-24T13:13:46.165Z,9.83
2023-01-24T13:16:32.860Z,9.73
2023-01-24T13:19:08.094Z,9.13
2023-01-24T13:21:43.413Z,9.83
2023-01-24T13:24:32.555Z,9.23
2023-01-24T13:27:16.671Z,10.07
2023-01-24T13:29:58.507Z,9.97
2023-01-24T13:32:27.053Z,9.97
2023-01-24T13:34:57.750Z,9.40
2023-01-24T13:37:27.913Z,9.17
2023-01-24T13:40:05.490Z,9.77
2023-01-24T13:42:38.205Z,9.83
2023-01-24T13:45:57.904Z,10.60
2023-01-24T13:49:04.209Z,9.30
2023-01-24T13:51:46.707Z,9.47
2023-01-24T13:54:38.405Z,8.83
2023-01-24T13:57:28.280Z,9.47
2023-01-24T14:00:19.161Z,9.13
2023-01-24T14:03:03.429Z,9.07
2023-01-24T14:05:55.561Z,9.23
2023-01-24T14:08:41.466Z,8.90
2023-01-24T14:11:31.869Z,9.87
2023-01-24T14:14:03.319Z,9.00
2023-01-24T14:17:00.696Z,9.47
2023-01-24T14:19:33.121Z,9.03
2023-01-24T14:22:07.996Z,9.93
2023-01-24T14:24:39.468Z,9.53
2023-01-24T14:27:20.263Z,9.57
2023-01-24T14:29:51.536Z,10.23
2023-01-24T14:32:25.197Z,10.40
2023-01-24T14:35:01.675Z,10.60
2023-01-24T14:37:33.365Z,9.90
2023-01-24T14:40:22.616Z,10.73
2023-01-24T14:42:51.726Z,10.33
2023-01-24T14:45:24.085Z,10.13
2023-01-24T14:47:53.126Z,10.13
2023-01-24T14:50:24.726Z,11.03
2023-01-24T14:52:53.093Z,11.53
2023-01-24T14:55:34.195Z,11.03
2023-01-24T14:58:26.854Z,10.33
2023-01-24T15:00:56.853Z,11.03
2023-01-24T15:03:26.859Z,13.27
2023-01-24T15:06:00.674Z,12.03
2023-01-24T15:08:29.265Z,12.10
2023-01-24T15:11:02.194Z,11.90
2023-01-24T15:13:34.468Z,11.80
2023-01-24T15:16:03.259Z,12.13
2023-01-24T15:18:48.236Z,13.00
2023-01-24T15:21:34.460Z,11.37
2023-01-24T15:24:04.048Z,11.37
2023-01-24T15:26:40.986Z,12.60
2023-01-24T15:29:38.492Z,12.30
2023-01-24T15:32:21.101Z,11.93
2023-01-24T15:34:48.909Z,12.10
2023-01-24T15:37:17.005Z,13.83
2023-01-24T15:39:45.761Z,13.63
2023-01-24T15:42:36.784Z,13.37
2023-01-24T15:45:05.948Z,12.63
2023-01-24T15:47:49.147Z,14.57
2023-01-24T15:50:36.739Z,12.17
2023-01-24T15:53:23.578Z,12.33
2023-01-24T15:55:52.719Z,11.93
2023-01-24T15:58:21.997Z,12.33
2023-01-24T16:00:54.507Z,13.07
2023-01-24T16:03:23.422Z,13.87
2023-01-24T16:05:51.517Z,12.83
2023-01-24T16:08:20.092Z,14.23
2023-01-24T16:10:49.349Z,14.47
2023-01-24T16:13:29.259Z,13.83
2023-01-24T16:15:57.643Z,13.80
2023-01-24T16:18:25.475Z,13.77
2023-01-24T16:20:53.551Z,14.77
2023-01-24T16:23:21.577Z,14.07
2023-01-24T16:25:51.814Z,14.23
2023-01-24T16:28:23.145Z,14.13
2023-01-24T16:30:51.941Z,13.73
2023-01-24T16:33:21.587Z,14.50
2023-01-24T16:35:49.767Z,15.00
2023-01-24T16:38:18.261Z,15.03
2023-01-24T16:40:46.069Z,12.90
2023-01-24T16:43:19.582Z,13.90
2023-01-24T16:45:50.488Z,13.57
2023-01-24T16:48:19.098Z,13.17
2023-01-24T16:50:47.384Z,13.27
2023-01-24T16:53:16.258Z,14.90
2023-01-24T16:55:44.076Z,14.00
2023-01-24T16:58:13.495Z,12.87
2023-01-24T17:00:41.522Z,13.27
2023-01-24T17:03:11.226Z,14.27
2023-01-24T17:05:40.602Z,13.77
2023-01-24T17:08:21.620Z,14.17
2023-01-24T17:10:49.344Z,13.33
2023-01-24T17:13:17.580Z,13.63
2023-01-24T17:15:45.969Z,13.57
2023-01-24T17:18:15.080Z,14.07
2023-01-24T17:20:43.127Z,13.63
2023-01-24T17:23:10.933Z,14.20
2023-01-24T17:25:38.697Z,14.17
2023-01-24T17:28:06.969Z,14.23
2023-01-24T17:30:34.738Z,13.57
2023-01-24T17:33:02.612Z,13.50
2023-01-24T17:35:31.882Z,14.33
2023-01-24T17:37:59.834Z,12.57
2023-01-24T17:40:27.624Z,16.03
2023-01-24T17:42:55.455Z,13.40
2023-01-24T17:45:23.592Z,14.07
2023-01-24T17:47:52.426Z,14.17
2023-01-24T17:50:20.452Z,13.47
2023-01-24T17:52:49.636Z,13.77
2023-01-24T17:55:17.669Z,13.97
2023-01-24T17:57:45.525Z,14.30
2023-01-24T18:00:14.209Z,14.20
2023-01-24T18:03:05.048Z,14.67
2023-01-24T18:05:32.807Z,14.37
2023-01-24T18:08:02.061Z,13.80
2023-01-24T18:10:29.939Z,14.70
2023-01-24T18:12:57.867Z,13.87
2023-01-24T18:15:25.773Z,13.33
2023-01-24T18:17:54.644Z,14.13
2023-01-24T18:20:22.447Z,13.50
2023-01-24T18:22:50.312Z,13.93
2023-01-24T18:25:19.804Z,12.80
2023-01-24T18:27:47.597Z,13.60
2023-01-24T18:30:16.535Z,13.40
2023-01-24T18:32:44.569Z,14.07
2023-01-24T18:35:12.334Z,14.20
2023-01-24T18:37:40.148Z,13.87
2023-01-24T18:40:09.249Z,14.43
2023-01-24T18:42:39.465Z,13.97
2023-01-24T18:45:08.644Z,14.03
2023-01-24T18:47:36.596Z,13.60
2023-01-24T18:50:04.576Z,13.87
2023-01-24T18:52:32.374Z,13.27
2023-01-24T18:55:00.200Z,12.80
2023-01-24T18:57:27.979Z,14.50
2023-01-24T18:59:57.184Z,14.80
2023-01-24T19:04:51.610Z,13.60
2023-01-24T19:07:19.344Z,14.30
2023-01-24T19:09:47.105Z,14.83
2023-01-24T19:12:14.841Z,15.63
2023-01-24T19:14:42.575Z,15.47
2023-01-24T19:17:11.732Z,15.10
2023-01-24T19:19:39.894Z,15.47
2023-01-24T19:22:09.554Z,14.30
2023-01-24T19:24:37.413Z,16.33
2023-01-24T19:27:05.342Z,16.70
2023-01-24T19:29:33.106Z,15.83
2023-01-24T19:32:00.918Z,16.27
2023-01-24T19:34:30.130Z,16.27
2023-01-24T19:36:57.943Z,15.90
2023-01-24T19:39:26.330Z,16.50
2023-01-24T19:41:54.184Z,17.07
2023-01-24T19:44:22.507Z,17.23
2023-01-24T19:46:51.903Z,18.13
2023-01-24T19:49:20.078Z,17.20
2023-01-24T19:51:49.323Z,19.80
2023-01-24T19:54:17.587Z,17.77
2023-01-24T19:56:45.633Z,16.93
2023-01-24T19:59:13.402Z,16.93
2023-01-24T20:01:41.730Z,16.27
2023-01-24T20:04:25.610Z,16.27
2023-01-24T20:06:55.776Z,15.67
2023-01-24T20:09:24.280Z,14.40
2023-01-24T20:11:53.063Z,15.00
2023-01-24T20:14:21.099Z,15.57
2023-01-24T20:16:48.961Z,14.73
2023-01-24T20:19:27.614Z,15.03
2023-01-24T20:21:58.726Z,15.37
2023-01-24T20:24:26.794Z,15.53
2023-01-24T20:26:54.976Z,15.97
2023-01-24T20:29:22.790Z,17.50
2023-01-24T20:31:50.641Z,15.43
2023-01-24T20:34:19.325Z,16.60
2023-01-24T20:36:48.047Z,15.37
2023-01-24T20:39:17.714Z,14.97
2023-01-24T20:41:46.400Z,14.53
2023-01-24T20:44:18.291Z,14.83
2023-01-24T20:46:49.495Z,13.93
2023-01-24T20:49:17.215Z,14.43
2023-01-24T20:51:44.962Z,14.40
2023-01-24T20:54:13.058Z,14.33
2023-01-24T20:56:43.318Z,14.43
2023-01-24T20:59:11.118Z,14.13
2023-01-24T21:01:39.027Z,14.20
2023-01-24T21:04:07.806Z,14.40
2023-01-24T21:06:37.614Z,14.90
2023-01-24T21:09:06.680Z,13.73
2023-01-24T21:11:35.298Z,13.30
2023-01-24T21:14:07.342Z,13.60
2023-01-24T21:16:36.997Z,13.07
2023-01-24T21:19:07.414Z,14.10
2023-01-24T21:21:36.317Z,12.90
2023-01-24T21:24:11.349Z,13.20
2023-01-24T21:26:40.994Z,13.27
2023-01-24T21:29:10.561Z,13.50
2023-01-24T21:31:38.640Z,14.63
2023-01-24T21:34:06.883Z,13.67
2023-01-24T21:36:37.167Z,15.07
2023-01-24T21:39:08.183Z,13.60
2023-01-24T21:41:53.250Z,13.37
2023-01-24T21:44:23.105Z,13.10
2023-01-24T21:46:51.015Z,13.87
2023-01-24T21:49:18.828Z,13.60
2023-01-24T21:51:49.160Z,13.30
2023-01-24T21:54:18.841Z,13.17
2023-01-24T21:57:06.180Z,13.40
2023-01-24T21:59:37.563Z,13.33
2023-01-24T22:02:08.858Z,11.97
2023-01-24T22:04:36.791Z,12.97
2023-01-24T22:07:05.447Z,12.13
2023-01-24T22:09:33.316Z,12.10
2023-01-24T22:12:01.073Z,13.40
2023-01-24T22:14:31.962Z,13.03
2023-01-24T22:17:03.540Z,12.87
2023-01-24T22:19:41.003Z,12.57
2023-01-24T22:22:22.187Z,12.97
2023-01-24T22:25:01.277Z,12.97
2023-01-24T22:27:29.476Z,12.57
2023-01-24T22:29:57.742Z,12.20
2023-01-24T22:32:27.597Z,12.33
2023-01-24T22:34:57.780Z,12.90
2023-01-24T22:37:29.109Z,12.57
2023-01-24T22:39:56.972Z,13.27
2023-01-24T22:42:25.641Z,12.53
2023-01-24T22:44:53.603Z,12.77
2023-01-24T22:47:21.363Z,13.13
2023-01-24T22:49:50.801Z,13.40
2023-01-24T22:52:18.624Z,13.07
2023-01-24T22:54:46.449Z,13.00
2023-01-24T22:57:14.281Z,13.57
2023-01-24T22:59:42.071Z,14.17
2023-01-24T23:02:09.887Z,14.27
2023-01-24T23:04:37.646Z,13.57
2023-01-24T23:07:07.169Z,13.17
2023-01-24T23:09:34.902Z,13.50
2023-01-24T23:12:03.025Z,13.17
2023-01-24T23:14:48.244Z,13.57
2023-01-24T23:17:16.559Z,13.60
2023-01-24T23:20:03.150Z,12.90
2023-01-24T23:22:35.578Z,13.47
2023-01-24T23:25:05.601Z,14.10
2023-01-24T23:27:36.731Z,13.47
2023-01-24T23:30:21.694Z,14.27
2023-01-24T23:32:52.006Z,14.50
2023-01-24T23:35:19.790Z,13.93
2023-01-24T23:37:48.946Z,14.13
2023-01-24T23:40:18.185Z,14.47
2023-01-24T23:42:46.262Z,14.97
2023-01-24T23:45:17.508Z,15.23
2023-01-24T23:47:45.444Z,14.37
2023-01-24T23:50:13.768Z,14.10
2023-01-24T23:52:41.667Z,13.90
2023-01-24T23:55:11.440Z,14.37
2023-01-24T23:57:39.452Z,14.97
